sensor_id;sensor_type;location;lat;lon;timestamp;temperature;humidity
8872;DHT22;4472;52.092;9.820;2023-06-19T06:20:10;22.30;92.70
8872;DHT22;4472;52.092;9.820;2023-06-19T06:22:58;22.20;93.10
8872;DHT22;4472;52.092;9.820;2023-06-19T06:25:45;22.00;92.70
8872;DHT22;4472;52.092;9.820;2023-06-19T06:28:32;21.90;92.50
8872;DHT22;4472;52.092;9.820;2023-06-19T06:31:19;21.80;93.70
8872;DHT22;4472;52.092;9.820;2023-06-19T06:34:06;21.90;94.00
8872;DHT22;4472;52.092;9.820;2023-06-19T06:36:55;22.00;94.30
8872;DHT22;4472;52.092;9.820;2023-06-19T06:39:42;22.10;93.60
8872;DHT22;4472;52.092;9.820;2023-06-19T06:42:30;22.20;93.80
8872;DHT22;4472;52.092;9.820;2023-06-19T06:45:17;22.30;93.10
8872;DHT22;4472;52.092;9.820;2023-06-19T06:48:04;22.30;93.60
8872;DHT22;4472;52.092;9.820;2023-06-19T06:50:52;22.30;93.60
8872;DHT22;4472;52.092;9.820;2023-06-19T06:53:46;22.40;93.10
8872;DHT22;4472;52.092;9.820;2023-06-19T06:56:33;22.40;93.30
8872;DHT22;4472;52.092;9.820;2023-06-19T06:59:20;22.50;92.80
8872;DHT22;4472;52.092;9.820;2023-06-19T07:02:08;22.50;93.00
8872;DHT22;4472;52.092;9.820;2023-06-19T07:04:56;22.50;93.00
8872;DHT22;4472;52.092;9.820;2023-06-19T07:07:43;22.60;92.90
8872;DHT22;4472;52.092;9.820;2023-06-19T07:10:31;22.60;92.80
8872;DHT22;4472;52.092;9.820;2023-06-19T07:13:18;22.70;93.00
8872;DHT22;4472;52.092;9.820;2023-06-19T07:16:06;22.80;92.60
8872;DHT22;4472;52.092;9.820;2023-06-19T07:18:53;22.90;92.50
8872;DHT22;4472;52.092;9.820;2023-06-19T07:21:40;23.00;92.90
8872;DHT22;4472;52.092;9.820;2023-06-19T07:24:28;23.20;93.40
8872;DHT22;4472;52.092;9.820;2023-06-19T07:27:16;23.40;94.50
8872;DHT22;4472;52.092;9.820;2023-06-19T07:30:05;23.60;94.60
8872;DHT22;4472;52.092;9.820;2023-06-19T07:32:52;23.90;94.60
8872;DHT22;4472;52.092;9.820;2023-06-19T07:35:39;24.10;94.40
8872;DHT22;4472;52.092;9.820;2023-06-19T07:38:26;24.30;93.40
8872;DHT22;4472;52.092;9.820;2023-06-19T07:41:14;24.50;93.10
8872;DHT22;4472;52.092;9.820;2023-06-19T07:44:02;24.60;92.60
8872;DHT22;4472;52.092;9.820;2023-06-19T07:46:49;24.90;91.90
8872;DHT22;4472;52.092;9.820;2023-06-19T07:49:37;25.00;91.80
8872;DHT22;4472;52.092;9.820;2023-06-19T07:52:24;25.20;91.30
8872;DHT22;4472;52.092;9.820;2023-06-19T07:55:11;25.40;91.40
8872;DHT22;4472;52.092;9.820;2023-06-19T07:57:58;25.50;90.90
8872;DHT22;4472;52.092;9.820;2023-06-19T08:00:47;25.70;90.60
8872;DHT22;4472;52.092;9.820;2023-06-19T08:03:34;25.80;90.00
8872;DHT22;4472;52.092;9.820;2023-06-19T08:06:21;26.00;89.20
8872;DHT22;4472;52.092;9.820;2023-06-19T08:09:08;26.10;88.60
8872;DHT22;4472;52.092;9.820;2023-06-19T08:11:55;26.80;90.10
8872;DHT22;4472;52.092;9.820;2023-06-19T08:14:42;26.20;89.10
8872;DHT22;4472;52.092;9.820;2023-06-19T08:17:31;26.30;89.70
8872;DHT22;4472;52.092;9.820;2023-06-19T08:20:18;26.30;88.10
8872;DHT22;4472;52.092;9.820;2023-06-19T08:23:06;26.30;88.80
8872;DHT22;4472;52.092;9.820;2023-06-19T08:25:53;26.40;88.30
8872;DHT22;4472;52.092;9.820;2023-06-19T08:28:40;26.40;87.50
8872;DHT22;4472;52.092;9.820;2023-06-19T08:31:28;26.40;87.70
8872;DHT22;4472;52.092;9.820;2023-06-19T08:34:16;26.40;87.70
8872;DHT22;4472;52.092;9.820;2023-06-19T08:37:05;26.40;89.10
8872;DHT22;4472;52.092;9.820;2023-06-19T08:39:52;26.40;90.10
8872;DHT22;4472;52.092;9.820;2023-06-19T08:42:39;26.50;89.70
8872;DHT22;4472;52.092;9.820;2023-06-19T08:45:29;26.60;90.00
8872;DHT22;4472;52.092;9.820;2023-06-19T08:48:16;26.70;90.50
8872;DHT22;4472;52.092;9.820;2023-06-19T08:51:05;26.70;91.40
8872;DHT22;4472;52.092;9.820;2023-06-19T08:53:55;26.70;90.50
8872;DHT22;4472;52.092;9.820;2023-06-19T08:56:42;26.60;90.20
8872;DHT22;4472;52.092;9.820;2023-06-19T08:59:30;26.70;90.80
8872;DHT22;4472;52.092;9.820;2023-06-19T09:02:17;26.80;91.80
8872;DHT22;4472;52.092;9.820;2023-06-19T09:05:15;26.90;91.50
8872;DHT22;4472;52.092;9.820;2023-06-19T09:08:04;26.90;90.70
8872;DHT22;4472;52.092;9.820;2023-06-19T09:10:56;27.00;90.70
8872;DHT22;4472;52.092;9.820;2023-06-19T09:13:43;27.00;90.90
8872;DHT22;4472;52.092;9.820;2023-06-19T09:16:37;27.10;91.90
8872;DHT22;4472;52.092;9.820;2023-06-19T09:19:24;27.20;91.10
8872;DHT22;4472;52.092;9.820;2023-06-19T09:22:11;27.20;90.90
8872;DHT22;4472;52.092;9.820;2023-06-19T09:25:01;27.30;90.90
8872;DHT22;4472;52.092;9.820;2023-06-19T09:27:49;27.40;90.20
8872;DHT22;4472;52.092;9.820;2023-06-19T09:30:36;27.40;90.40
8872;DHT22;4472;52.092;9.820;2023-06-19T09:33:25;27.40;91.00
8872;DHT22;4472;52.092;9.820;2023-06-19T09:36:13;27.50;90.60
8872;DHT22;4472;52.092;9.820;2023-06-19T09:39:02;27.70;90.80
8872;DHT22;4472;52.092;9.820;2023-06-19T09:41:51;27.90;91.00
8872;DHT22;4472;52.092;9.820;2023-06-19T09:44:41;28.10;90.30
8872;DHT22;4472;52.092;9.820;2023-06-19T09:47:31;28.00;90.00
8872;DHT22;4472;52.092;9.820;2023-06-19T09:50:19;28.20;89.30
8872;DHT22;4472;52.092;9.820;2023-06-19T09:53:12;27.80;90.40
8872;DHT22;4472;52.092;9.820;2023-06-19T09:56:00;27.80;90.60
8872;DHT22;4472;52.092;9.820;2023-06-19T09:58:50;27.80;90.60
8872;DHT22;4472;52.092;9.820;2023-06-19T10:01:37;27.80;91.10
8872;DHT22;4472;52.092;9.820;2023-06-19T10:04:25;27.80;90.80
8872;DHT22;4472;52.092;9.820;2023-06-19T10:07:16;27.70;91.10
8872;DHT22;4472;52.092;9.820;2023-06-19T10:10:05;27.70;91.30
8872;DHT22;4472;52.092;9.820;2023-06-19T10:12:54;27.60;91.70
8872;DHT22;4472;52.092;9.820;2023-06-19T10:15:44;27.60;90.50
8872;DHT22;4472;52.092;9.820;2023-06-19T10:18:44;27.50;90.20
8872;DHT22;4472;52.092;9.820;2023-06-19T10:21:44;27.50;90.90
8872;DHT22;4472;52.092;9.820;2023-06-19T10:24:32;27.50;91.00
8872;DHT22;4472;52.092;9.820;2023-06-19T10:27:21;27.40;91.60
8872;DHT22;4472;52.092;9.820;2023-06-19T10:30:16;27.40;91.80
8872;DHT22;4472;52.092;9.820;2023-06-19T10:33:05;27.30;91.90
8872;DHT22;4472;52.092;9.820;2023-06-19T10:35:52;27.30;92.90
8872;DHT22;4472;52.092;9.820;2023-06-19T10:38:40;27.30;92.40
8872;DHT22;4472;52.092;9.820;2023-06-19T10:41:27;27.30;92.20
8872;DHT22;4472;52.092;9.820;2023-06-19T10:44:14;27.40;92.50
8872;DHT22;4472;52.092;9.820;2023-06-19T10:47:01;27.40;91.80
8872;DHT22;4472;52.092;9.820;2023-06-19T10:49:50;27.30;92.00
8872;DHT22;4472;52.092;9.820;2023-06-19T10:52:40;27.30;92.10
8872;DHT22;4472;52.092;9.820;2023-06-19T10:55:28;27.40;91.60
8872;DHT22;4472;52.092;9.820;2023-06-19T10:58:15;27.40;91.40
8872;DHT22;4472;52.092;9.820;2023-06-19T11:01:02;27.50;91.60
8872;DHT22;4472;52.092;9.820;2023-06-19T11:03:50;27.50;90.70
8872;DHT22;4472;52.092;9.820;2023-06-19T11:06:40;27.70;90.70
8872;DHT22;4472;52.092;9.820;2023-06-19T11:09:30;27.80;91.00
8872;DHT22;4472;52.092;9.820;2023-06-19T11:12:21;27.80;90.50
8872;DHT22;4472;52.092;9.820;2023-06-19T11:15:10;27.90;90.70
8872;DHT22;4472;52.092;9.820;2023-06-19T11:17:57;28.00;91.40
8872;DHT22;4472;52.092;9.820;2023-06-19T11:20:45;28.20;91.10
8872;DHT22;4472;52.092;9.820;2023-06-19T11:23:35;28.20;90.80
8872;DHT22;4472;52.092;9.820;2023-06-19T11:26:24;28.20;90.50
8872;DHT22;4472;52.092;9.820;2023-06-19T11:29:16;28.30;90.80
8872;DHT22;4472;52.092;9.820;2023-06-19T11:32:06;28.40;90.60
8872;DHT22;4472;52.092;9.820;2023-06-19T11:34:53;28.60;90.20
8872;DHT22;4472;52.092;9.820;2023-06-19T11:37:42;28.60;90.30
8872;DHT22;4472;52.092;9.820;2023-06-19T11:40:40;28.60;89.50
8872;DHT22;4472;52.092;9.820;2023-06-19T11:43:28;28.60;87.90
8872;DHT22;4472;52.092;9.820;2023-06-19T11:46:16;28.50;89.30
8872;DHT22;4472;52.092;9.820;2023-06-19T11:49:09;28.50;89.20
8872;DHT22;4472;52.092;9.820;2023-06-19T11:51:56;28.50;89.90
8872;DHT22;4472;52.092;9.820;2023-06-19T11:54:43;28.50;87.10
8872;DHT22;4472;52.092;9.820;2023-06-19T11:57:32;28.40;87.80
8872;DHT22;4472;52.092;9.820;2023-06-19T12:00:20;28.30;88.90
8872;DHT22;4472;52.092;9.820;2023-06-19T12:03:07;28.40;88.20
8872;DHT22;4472;52.092;9.820;2023-06-19T12:05:55;28.30;88.10
8872;DHT22;4472;52.092;9.820;2023-06-19T12:08:42;28.30;88.20
8872;DHT22;4472;52.092;9.820;2023-06-19T12:11:29;28.30;86.90
8872;DHT22;4472;52.092;9.820;2023-06-19T12:14:18;28.20;87.90
8872;DHT22;4472;52.092;9.820;2023-06-19T12:17:05;28.20;87.50
8872;DHT22;4472;52.092;9.820;2023-06-19T12:19:52;28.20;88.00
8872;DHT22;4472;52.092;9.820;2023-06-19T12:22:40;28.30;87.60
8872;DHT22;4472;52.092;9.820;2023-06-19T12:25:28;28.40;87.00
8872;DHT22;4472;52.092;9.820;2023-06-19T12:28:15;28.40;86.30
8872;DHT22;4472;52.092;9.820;2023-06-19T12:31:05;28.50;87.90
8872;DHT22;4472;52.092;9.820;2023-06-19T12:33:53;28.60;88.10
8872;DHT22;4472;52.092;9.820;2023-06-19T12:36:40;28.60;87.50
8872;DHT22;4472;52.092;9.820;2023-06-19T12:39:27;28.60;87.00
8872;DHT22;4472;52.092;9.820;2023-06-19T12:42:14;28.60;85.90
8872;DHT22;4472;52.092;9.820;2023-06-19T12:45:01;28.50;86.70
8872;DHT22;4472;52.092;9.820;2023-06-19T12:47:50;28.40;86.00
8872;DHT22;4472;52.092;9.820;2023-06-19T12:50:37;28.30;89.30
8872;DHT22;4472;52.092;9.820;2023-06-19T12:53:24;28.30;87.00
8872;DHT22;4472;52.092;9.820;2023-06-19T12:56:15;28.30;86.90
8872;DHT22;4472;52.092;9.820;2023-06-19T12:59:02;28.40;87.90
8872;DHT22;4472;52.092;9.820;2023-06-19T13:01:49;28.40;88.20
8872;DHT22;4472;52.092;9.820;2023-06-19T13:04:38;28.50;86.10
8872;DHT22;4472;52.092;9.820;2023-06-19T13:07:25;28.40;86.20
8872;DHT22;4472;52.092;9.820;2023-06-19T13:10:12;28.40;85.90
8872;DHT22;4472;52.092;9.820;2023-06-19T13:12:59;28.40;86.50
8872;DHT22;4472;52.092;9.820;2023-06-19T13:16:00;28.40;85.70
8872;DHT22;4472;52.092;9.820;2023-06-19T13:18:50;28.50;86.20
8872;DHT22;4472;52.092;9.820;2023-06-19T13:21:39;28.60;85.90
8872;DHT22;4472;52.092;9.820;2023-06-19T13:24:26;28.60;86.80
8872;DHT22;4472;52.092;9.820;2023-06-19T13:27:14;28.60;86.90
8872;DHT22;4472;52.092;9.820;2023-06-19T13:30:01;28.70;86.10
8872;DHT22;4472;52.092;9.820;2023-06-19T13:32:49;28.80;86.00
8872;DHT22;4472;52.092;9.820;2023-06-19T13:35:36;28.70;86.60
8872;DHT22;4472;52.092;9.820;2023-06-19T13:38:24;28.80;84.60
8872;DHT22;4472;52.092;9.820;2023-06-19T13:41:12;28.80;84.00
8872;DHT22;4472;52.092;9.820;2023-06-19T13:43:59;28.80;84.70
8872;DHT22;4472;52.092;9.820;2023-06-19T13:46:46;28.70;85.00
8872;DHT22;4472;52.092;9.820;2023-06-19T13:49:33;28.40;83.60
8872;DHT22;4472;52.092;9.820;2023-06-19T13:52:20;28.20;83.90
8872;DHT22;4472;52.092;9.820;2023-06-19T13:55:09;28.00;85.00
8872;DHT22;4472;52.092;9.820;2023-06-19T13:57:56;27.70;89.30
8872;DHT22;4472;52.092;9.820;2023-06-19T14:00:44;28.00;87.40
8872;DHT22;4472;52.092;9.820;2023-06-19T14:03:31;28.10;86.40
8872;DHT22;4472;52.092;9.820;2023-06-19T14:06:18;28.10;87.20
8872;DHT22;4472;52.092;9.820;2023-06-19T14:09:05;28.20;87.20
8872;DHT22;4472;52.092;9.820;2023-06-19T14:11:54;28.20;85.80
8872;DHT22;4472;52.092;9.820;2023-06-19T14:14:41;28.20;85.20
8872;DHT22;4472;52.092;9.820;2023-06-19T14:17:28;28.20;86.90
8872;DHT22;4472;52.092;9.820;2023-06-19T14:20:15;28.30;85.20
8872;DHT22;4472;52.092;9.820;2023-06-19T14:23:02;28.30;84.20
8872;DHT22;4472;52.092;9.820;2023-06-19T14:25:49;28.30;86.20
8872;DHT22;4472;52.092;9.820;2023-06-19T14:28:38;28.40;84.50
8872;DHT22;4472;52.092;9.820;2023-06-19T14:31:25;28.40;83.40
8872;DHT22;4472;52.092;9.820;2023-06-19T14:34:12;28.30;82.10
8872;DHT22;4472;52.092;9.820;2023-06-19T14:36:59;28.20;84.10
8872;DHT22;4472;52.092;9.820;2023-06-19T14:39:46;28.10;84.40
8872;DHT22;4472;52.092;9.820;2023-06-19T14:42:33;28.20;83.20
8872;DHT22;4472;52.092;9.820;2023-06-19T14:45:22;28.20;83.50
8872;DHT22;4472;52.092;9.820;2023-06-19T14:48:09;28.30;82.60
8872;DHT22;4472;52.092;9.820;2023-06-19T14:50:56;28.30;83.40
8872;DHT22;4472;52.092;9.820;2023-06-19T14:53:43;28.30;83.20
8872;DHT22;4472;52.092;9.820;2023-06-19T14:56:31;28.30;83.30
8872;DHT22;4472;52.092;9.820;2023-06-19T14:59:18;28.30;83.40
8872;DHT22;4472;52.092;9.820;2023-06-19T15:02:06;28.40;83.90
8872;DHT22;4472;52.092;9.820;2023-06-19T15:04:54;28.30;84.00
8872;DHT22;4472;52.092;9.820;2023-06-19T15:07:41;28.30;84.40
8872;DHT22;4472;52.092;9.820;2023-06-19T15:10:28;28.30;85.50
8872;DHT22;4472;52.092;9.820;2023-06-19T15:13:15;28.40;83.10
8872;DHT22;4472;52.092;9.820;2023-06-19T15:16:03;28.40;82.50
8872;DHT22;4472;52.092;9.820;2023-06-19T15:18:53;28.50;83.10
8872;DHT22;4472;52.092;9.820;2023-06-19T15:21:40;28.60;82.90
8872;DHT22;4472;52.092;9.820;2023-06-19T15:24:28;28.60;83.80
8872;DHT22;4472;52.092;9.820;2023-06-19T15:27:15;28.60;82.20
8872;DHT22;4472;52.092;9.820;2023-06-19T15:30:07;28.50;83.90
8872;DHT22;4472;52.092;9.820;2023-06-19T15:32:55;28.50;82.00
8872;DHT22;4472;52.092;9.820;2023-06-19T15:35:44;28.40;82.90
8872;DHT22;4472;52.092;9.820;2023-06-19T15:38:33;28.40;82.40
8872;DHT22;4472;52.092;9.820;2023-06-19T15:41:21;28.30;84.20
8872;DHT22;4472;52.092;9.820;2023-06-19T15:44:09;28.20;83.10
8872;DHT22;4472;52.092;9.820;2023-06-19T15:46:56;28.10;84.40
8872;DHT22;4472;52.092;9.820;2023-06-19T15:49:43;28.10;84.00
8872;DHT22;4472;52.092;9.820;2023-06-19T15:52:32;28.20;84.70
8872;DHT22;4472;52.092;9.820;2023-06-19T15:55:19;28.30;86.50
8872;DHT22;4472;52.092;9.820;2023-06-19T15:58:07;28.30;84.80
8872;DHT22;4472;52.092;9.820;2023-06-19T16:00:54;28.30;85.70
8872;DHT22;4472;52.092;9.820;2023-06-19T16:03:42;28.40;83.40
8872;DHT22;4472;52.092;9.820;2023-06-19T16:06:29;27.80;83.50
8872;DHT22;4472;52.092;9.820;2023-06-19T16:09:17;28.30;84.80
8872;DHT22;4472;52.092;9.820;2023-06-19T16:12:05;28.30;84.40
8872;DHT22;4472;52.092;9.820;2023-06-19T16:14:52;28.10;83.80
8872;DHT22;4472;52.092;9.820;2023-06-19T16:17:39;28.10;84.40
8872;DHT22;4472;52.092;9.820;2023-06-19T16:20:26;28.00;86.50
8872;DHT22;4472;52.092;9.820;2023-06-19T16:26:02;27.80;88.40
8872;DHT22;4472;52.092;9.820;2023-06-19T16:28:50;27.70;90.70
8872;DHT22;4472;52.092;9.820;2023-06-19T16:31:37;27.70;85.30
8872;DHT22;4472;52.092;9.820;2023-06-19T16:34:25;27.80;93.50
8872;DHT22;4472;52.092;9.820;2023-06-19T16:37:12;27.70;90.10
8872;DHT22;4472;52.092;9.820;2023-06-19T16:39:59;27.60;90.90
8872;DHT22;4472;52.092;9.820;2023-06-19T16:42:47;27.60;86.90
8872;DHT22;4472;52.092;9.820;2023-06-19T16:45:34;27.60;93.20
8872;DHT22;4472;52.092;9.820;2023-06-19T16:48:22;27.80;90.80
8872;DHT22;4472;52.092;9.820;2023-06-19T16:51:09;27.70;95.50
8872;DHT22;4472;52.092;9.820;2023-06-19T16:53:56;27.70;88.00
8872;DHT22;4472;52.092;9.820;2023-06-19T16:56:43;27.70;85.80
8872;DHT22;4472;52.092;9.820;2023-06-19T16:59:32;27.80;85.70
8872;DHT22;4472;52.092;9.820;2023-06-19T17:02:19;27.80;84.90
8872;DHT22;4472;52.092;9.820;2023-06-19T17:05:06;27.70;84.60
8872;DHT22;4472;52.092;9.820;2023-06-19T17:07:54;27.70;86.00
8872;DHT22;4472;52.092;9.820;2023-06-19T17:10:41;27.60;92.30
8872;DHT22;4472;52.092;9.820;2023-06-19T17:13:28;27.50;91.40
8872;DHT22;4472;52.092;9.820;2023-06-19T17:16:16;27.40;90.10
8872;DHT22;4472;52.092;9.820;2023-06-19T17:19:04;27.40;88.20
8872;DHT22;4472;52.092;9.820;2023-06-19T17:21:51;27.50;89.80
8872;DHT22;4472;52.092;9.820;2023-06-19T17:24:38;27.20;91.50
8872;DHT22;4472;52.092;9.820;2023-06-19T17:27:26;27.20;89.00
8872;DHT22;4472;52.092;9.820;2023-06-19T17:30:13;27.40;91.70
8872;DHT22;4472;52.092;9.820;2023-06-19T17:33:01;27.10;87.10
8872;DHT22;4472;52.092;9.820;2023-06-19T17:35:49;27.10;86.20
8872;DHT22;4472;52.092;9.820;2023-06-19T17:38:36;27.00;86.80
8872;DHT22;4472;52.092;9.820;2023-06-19T17:41:23;27.00;86.90
8872;DHT22;4472;52.092;9.820;2023-06-19T17:44:10;26.90;87.80
8872;DHT22;4472;52.092;9.820;2023-06-19T17:46:57;26.80;88.70
8872;DHT22;4472;52.092;9.820;2023-06-19T17:49:46;26.80;89.70
8872;DHT22;4472;52.092;9.820;2023-06-19T17:52:34;26.70;90.10
8872;DHT22;4472;52.092;9.820;2023-06-19T17:55:21;26.60;91.00
8872;DHT22;4472;52.092;9.820;2023-06-19T17:58:08;26.50;94.80
8872;DHT22;4472;52.092;9.820;2023-06-19T18:00:55;26.50;91.20
8872;DHT22;4472;52.092;9.820;2023-06-19T18:03:42;26.50;93.10
8872;DHT22;4472;52.092;9.820;2023-06-19T18:06:31;26.40;88.90
8872;DHT22;4472;52.092;9.820;2023-06-19T18:09:18;26.30;86.70
8872;DHT22;4472;52.092;9.820;2023-06-19T18:12:05;26.20;89.40
8872;DHT22;4472;52.092;9.820;2023-06-19T18:14:53;26.20;90.50
8872;DHT22;4472;52.092;9.820;2023-06-19T18:17:40;26.10;92.00
8872;DHT22;4472;52.092;9.820;2023-06-19T18:20:27;26.10;92.10
8872;DHT22;4472;52.092;9.820;2023-06-19T18:23:16;26.00;92.40
8872;DHT22;4472;52.092;9.820;2023-06-19T18:26:03;25.90;93.10
8872;DHT22;4472;52.092;9.820;2023-06-19T18:28:50;25.90;93.50
8872;DHT22;4472;52.092;9.820;2023-06-19T18:31:37;25.90;93.10
8872;DHT22;4472;52.092;9.820;2023-06-19T18:34:24;25.90;93.70
8872;DHT22;4472;52.092;9.820;2023-06-19T18:37:11;25.80;99.70
8872;DHT22;4472;52.092;9.820;2023-06-19T18:40:00;25.80;99.90
8872;DHT22;4472;52.092;9.820;2023-06-19T18:42:47;25.70;97.70
8872;DHT22;4472;52.092;9.820;2023-06-19T18:45:34;25.70;98.10
8872;DHT22;4472;52.092;9.820;2023-06-19T18:48:21;25.60;96.60
8872;DHT22;4472;52.092;9.820;2023-06-19T18:51:08;25.50;93.70
8872;DHT22;4472;52.092;9.820;2023-06-19T18:53:55;25.40;93.70
8872;DHT22;4472;52.092;9.820;2023-06-19T18:56:44;25.40;94.00
8872;DHT22;4472;52.092;9.820;2023-06-19T18:59:31;25.30;94.80
8872;DHT22;4472;52.092;9.820;2023-06-19T19:02:18;25.20;96.20
8872;DHT22;4472;52.092;9.820;2023-06-19T19:05:06;25.10;96.20
8872;DHT22;4472;52.092;9.820;2023-06-19T19:07:54;25.10;96.40
8872;DHT22;4472;52.092;9.820;2023-06-19T19:10:41;24.90;97.50
8872;DHT22;4472;52.092;9.820;2023-06-19T19:13:30;24.80;98.30
8872;DHT22;4472;52.092;9.820;2023-06-19T19:16:17;24.70;97.80
8872;DHT22;4472;52.092;9.820;2023-06-19T19:19:04;24.60;99.10
8872;DHT22;4472;52.092;9.820;2023-06-19T19:21:51;24.40;99.90
8872;DHT22;4472;52.092;9.820;2023-06-19T19:30:15;24.00;99.90
8872;DHT22;4472;52.092;9.820;2023-06-19T19:35:58;23.80;98.50
8872;DHT22;4472;52.092;9.820;2023-06-19T19:41:34;23.50;97.60
8872;DHT22;4472;52.092;9.820;2023-06-19T19:44:21;23.30;99.90
8872;DHT22;4472;52.092;9.820;2023-06-19T19:47:10;23.10;99.90
8872;DHT22;4472;52.092;9.820;2023-06-19T19:49:57;22.80;99.90
8872;DHT22;4472;52.092;9.820;2023-06-19T19:52:44;22.90;99.90
8872;DHT22;4472;52.092;9.820;2023-06-19T19:55:31;22.80;99.90
8872;DHT22;4472;52.092;9.820;2023-06-19T20:01:07;22.60;99.90
8872;DHT22;4472;52.092;9.820;2023-06-19T20:03:56;22.50;99.90
8872;DHT22;4472;52.092;9.820;2023-06-19T20:06:43;22.50;99.90
8872;DHT22;4472;52.092;9.820;2023-06-19T20:09:30;22.40;99.90
8872;DHT22;4472;52.092;9.820;2023-06-19T20:12:33;22.40;99.90
8872;DHT22;4472;52.092;9.820;2023-06-19T20:15:20;22.30;99.90
8872;DHT22;4472;52.092;9.820;2023-06-19T20:18:07;22.20;99.90
8872;DHT22;4472;52.092;9.820;2023-06-19T20:20:56;20.10;99.90
8872;DHT22;4472;52.092;9.820;2023-06-19T20:23:43;22.00;99.90
8872;DHT22;4472;52.092;9.820;2023-06-19T20:26:30;22.10;99.90
8872;DHT22;4472;52.092;9.820;2023-06-19T20:29:17;21.90;99.90
8872;DHT22;4472;52.092;9.820;2023-06-19T20:32:05;21.90;99.90
8872;DHT22;4472;52.092;9.820;2023-06-19T20:34:53;21.80;99.90
8872;DHT22;4472;52.092;9.820;2023-06-19T20:37:41;21.80;99.90
8872;DHT22;4472;52.092;9.820;2023-06-19T20:43:16;21.70;99.90
8872;DHT22;4472;52.092;9.820;2023-06-19T20:46:03;21.60;99.90
8872;DHT22;4472;52.092;9.820;2023-06-19T20:48:50;21.60;99.90
8872;DHT22;4472;52.092;9.820;2023-06-19T20:51:37;21.50;99.90
8872;DHT22;4472;52.092;9.820;2023-06-19T20:54:25;21.50;99.90
8872;DHT22;4472;52.092;9.820;2023-06-19T21:00:00;21.40;99.90
8872;DHT22;4472;52.092;9.820;2023-06-19T21:02:55;21.60;99.90
8872;DHT22;4472;52.092;9.820;2023-06-19T21:05:42;21.30;99.90
8872;DHT22;4472;52.092;9.820;2023-06-19T21:11:20;21.20;99.90
8872;DHT22;4472;52.092;9.820;2023-06-19T21:14:07;21.20;99.90
8872;DHT22;4472;52.092;9.820;2023-06-19T21:16:54;21.10;99.90
8872;DHT22;4472;52.092;9.820;2023-06-19T21:19:42;21.10;99.90
8872;DHT22;4472;52.092;9.820;2023-06-19T21:22:29;21.10;99.90
8872;DHT22;4472;52.092;9.820;2023-06-19T21:25:16;21.00;99.90
8872;DHT22;4472;52.092;9.820;2023-06-19T21:28:05;21.00;99.90
8872;DHT22;4472;52.092;9.820;2023-06-19T21:30:52;21.00;99.90
8872;DHT22;4472;52.092;9.820;2023-06-19T21:33:39;21.00;99.90
8872;DHT22;4472;52.092;9.820;2023-06-19T21:36:27;20.90;99.90
8872;DHT22;4472;52.092;9.820;2023-06-19T21:39:14;20.80;99.90
8872;DHT22;4472;52.092;9.820;2023-06-19T21:42:01;20.80;99.90
8872;DHT22;4472;52.092;9.820;2023-06-19T21:44:49;20.70;99.90
8872;DHT22;4472;52.092;9.820;2023-06-19T21:47:37;20.70;99.90
8872;DHT22;4472;52.092;9.820;2023-06-19T21:50:24;20.60;99.90
8872;DHT22;4472;52.092;9.820;2023-06-19T21:53:12;20.60;99.90
8872;DHT22;4472;52.092;9.820;2023-06-19T21:55:59;20.50;99.90
8872;DHT22;4472;52.092;9.820;2023-06-19T21:58:48;20.40;99.90
8872;DHT22;4472;52.092;9.820;2023-06-19T22:01:36;20.40;99.90
8872;DHT22;4472;52.092;9.820;2023-06-19T22:04:25;20.40;99.90
8872;DHT22;4472;52.092;9.820;2023-06-19T22:07:13;20.30;99.90
8872;DHT22;4472;52.092;9.820;2023-06-19T22:10:02;20.20;99.90
8872;DHT22;4472;52.092;9.820;2023-06-19T22:12:49;20.20;99.90
8872;DHT22;4472;52.092;9.820;2023-06-19T22:15:36;20.10;99.90
8872;DHT22;4472;52.092;9.820;2023-06-19T22:18:25;20.00;99.90
8872;DHT22;4472;52.092;9.820;2023-06-19T22:21:12;19.90;99.90
8872;DHT22;4472;52.092;9.820;2023-06-19T22:23:59;19.90;99.90
8872;DHT22;4472;52.092;9.820;2023-06-19T22:26:47;19.90;99.90
8872;DHT22;4472;52.092;9.820;2023-06-19T22:29:34;19.90;99.90
8872;DHT22;4472;52.092;9.820;2023-06-19T22:32:21;19.80;99.90
8872;DHT22;4472;52.092;9.820;2023-06-19T22:35:09;19.80;99.90
8872;DHT22;4472;52.092;9.820;2023-06-19T22:37:57;19.70;99.90
8872;DHT22;4472;52.092;9.820;2023-06-19T22:40:44;19.70;99.90
8872;DHT22;4472;52.092;9.820;2023-06-19T22:43:31;19.60;99.90
8872;DHT22;4472;52.092;9.820;2023-06-19T22:46:18;19.50;99.90
8872;DHT22;4472;52.092;9.820;2023-06-19T22:49:05;19.40;99.90
8872;DHT22;4472;52.092;9.820;2023-06-19T22:51:54;19.40;99.90
8872;DHT22;4472;52.092;9.820;2023-06-19T22:54:42;19.30;99.90
8872;DHT22;4472;52.092;9.820;2023-06-19T22:57:30;19.20;99.90
8872;DHT22;4472;52.092;9.820;2023-06-19T23:00:20;19.20;99.90
8872;DHT22;4472;52.092;9.820;2023-06-19T23:03:07;19.20;99.90
8872;DHT22;4472;52.092;9.820;2023-06-19T23:05:54;19.20;99.90
8872;DHT22;4472;52.092;9.820;2023-06-19T23:08:43;19.20;99.90
8872;DHT22;4472;52.092;9.820;2023-06-19T23:11:35;19.20;99.90
8872;DHT22;4472;52.092;9.820;2023-06-19T23:14:22;19.10;99.90
8872;DHT22;4472;52.092;9.820;2023-06-19T23:17:09;19.10;99.90
8872;DHT22;4472;52.092;9.820;2023-06-19T23:19:56;19.10;99.90
8872;DHT22;4472;52.092;9.820;2023-06-19T23:22:44;19.00;99.90
8872;DHT22;4472;52.092;9.820;2023-06-19T23:25:34;19.00;99.90
8872;DHT22;4472;52.092;9.820;2023-06-19T23:28:22;19.00;99.90
8872;DHT22;4472;52.092;9.820;2023-06-19T23:31:09;18.90;99.90
8872;DHT22;4472;52.092;9.820;2023-06-19T23:33:56;18.90;99.90
8872;DHT22;4472;52.092;9.820;2023-06-19T23:36:45;18.90;99.90
8872;DHT22;4472;52.092;9.820;2023-06-19T23:39:32;18.90;99.90
8872;DHT22;4472;52.092;9.820;2023-06-19T23:42:21;18.90;99.90
8872;DHT22;4472;52.092;9.820;2023-06-19T23:45:09;18.90;99.90
8872;DHT22;4472;52.092;9.820;2023-06-19T23:47:56;18.90;99.90
8872;DHT22;4472;52.092;9.820;2023-06-19T23:50:43;18.90;99.90
8872;DHT22;4472;52.092;9.820;2023-06-19T23:53:31;18.80;99.90
8872;DHT22;4472;52.092;9.820;2023-06-19T23:56:18;18.80;99.90
8872;DHT22;4472;52.092;9.820;2023-06-19T23:59:06;18.70;99.90
